Decoded Metar for UUOB (BELGOROD in RUSSIA) (IATA:N/A) | Meteo·Mobile Aviation Weather
aviador You're here:

UUOB Decoded Metar

BELGOROD in RUSSIA
Report Time2018-08-16 00:30:00
UTC Time2018-08-16 00:45:34
Flight Rules vfr VFR
Wind200° at 8 kt
W.Decomp.*RWY 11: 1.1 kt HW 7.9 kt RCW
W.Rank200° ranks 32
Current wind is above 200° avg. (7.9)
Visibility9999 m
Phenomena:N/A
Clouds:N/A
Expected CloudBase > 5,200 ft AGL from Temp-Dew spread
CeilingNone
Temp23°C (ISA +9)
Dew Point10°C (44% RH)
AAT20.2°C
QNH1016 hPa
Density Alt1,900 ft
Elevation735 ft
Report Wrong Elevation
Raw Report
METAR UUOB 160030Z 20004MPS CAVOK 23/10 Q1016 R11/090060 NOSIG=

Extra information for UUOB:More info

Metar Taf Metar & Taf Last 4 Metars F.Rules Stats Wind Profile Meteogram Temp Stats Airport Information Weather charts Add Link Nearby VenuesMetar ALERT Operation Metar Decoded Social comments